createdAt,value
2023-03-13T00:01:32.166Z,100.00
2023-03-13T00:04:00.771Z,100.00
2023-03-13T00:06:33.365Z,100.00
2023-03-13T00:09:02.407Z,100.00
2023-03-13T00:11:32.753Z,100.00
2023-03-13T00:14:03.454Z,100.00
2023-03-13T00:16:32.451Z,100.00
2023-03-13T00:19:00.823Z,100.00
2023-03-13T00:21:30.681Z,100.00
2023-03-13T00:24:00.233Z,100.00
2023-03-13T00:26:30.240Z,100.00
2023-03-13T00:29:00.522Z,100.00
2023-03-13T00:31:30.941Z,100.00
2023-03-13T00:34:01.229Z,100.00
2023-03-13T00:36:31.772Z,100.00
2023-03-13T00:39:00.764Z,100.00
2023-03-13T00:41:31.029Z,100.00
2023-03-13T00:44:01.112Z,100.00
2023-03-13T00:46:31.472Z,100.00
2023-03-13T00:48:59.935Z,100.00
2023-03-13T00:51:29.469Z,100.00
2023-03-13T00:54:00.499Z,100.00
2023-03-13T00:56:29.846Z,100.00
2023-03-13T00:58:58.441Z,100.00
2023-03-13T01:01:30.815Z,100.00
2023-03-13T01:04:02.012Z,100.00
2023-03-13T01:06:34.094Z,100.00
2023-03-13T01:09:03.037Z,100.00
2023-03-13T01:11:33.282Z,100.00
2023-03-13T01:14:05.130Z,100.00
2023-03-13T01:16:36.450Z,100.00
2023-03-13T01:19:07.093Z,100.00
2023-03-13T01:21:35.536Z,100.00
2023-03-13T01:24:05.679Z,100.00
2023-03-13T01:26:34.280Z,100.00
2023-03-13T01:29:02.859Z,100.00
2023-03-13T01:31:33.573Z,100.00
2023-03-13T01:34:05.480Z,100.00
2023-03-13T01:36:34.665Z,100.00
2023-03-13T01:39:03.157Z,100.00
2023-03-13T01:41:32.391Z,100.00
2023-03-13T01:44:01.214Z,100.00
2023-03-13T01:46:38.045Z,100.00
2023-03-13T01:49:24.951Z,100.00
2023-03-13T01:52:05.403Z,100.00
2023-03-13T01:54:41.850Z,100.00
2023-03-13T01:57:18.072Z,100.00
2023-03-13T01:59:50.251Z,100.00
2023-03-13T02:02:19.183Z,100.00
2023-03-13T02:04:53.100Z,100.00
2023-03-13T02:07:25.438Z,100.00
2023-03-13T02:09:57.027Z,100.00
2023-03-13T02:12:30.547Z,100.00
2023-03-13T02:15:00.252Z,100.00
2023-03-13T02:17:29.103Z,100.00
2023-03-13T02:19:58.832Z,100.00
2023-03-13T02:22:33.102Z,100.00
2023-03-13T02:25:09.084Z,100.00
2023-03-13T02:27:39.201Z,100.00
2023-03-13T02:30:10.070Z,100.00
2023-03-13T02:32:38.870Z,100.00
2023-03-13T02:35:11.607Z,100.00
2023-03-13T02:37:42.055Z,100.00
2023-03-13T02:40:19.395Z,100.00
2023-03-13T02:42:52.098Z,100.00
2023-03-13T02:45:20.921Z,100.00
2023-03-13T02:47:50.035Z,100.00
2023-03-13T02:50:19.236Z,100.00
2023-03-13T02:52:50.735Z,100.00
2023-03-13T02:55:24.230Z,100.00
2023-03-13T02:57:54.040Z,100.00
2023-03-13T03:00:26.766Z,100.00
2023-03-13T03:02:56.620Z,100.00
2023-03-13T03:05:25.258Z,100.00
2023-03-13T03:07:53.901Z,100.00
2023-03-13T03:10:22.362Z,100.00
2023-03-13T03:12:51.346Z,100.00
2023-03-13T03:15:22.831Z,100.00
2023-03-13T03:17:51.457Z,100.00
2023-03-13T03:20:19.922Z,100.00
2023-03-13T03:22:48.783Z,100.00
2023-03-13T03:25:17.881Z,100.00
2023-03-13T03:27:46.463Z,100.00
2023-03-13T03:30:15.597Z,100.00
2023-03-13T03:32:45.582Z,100.00
2023-03-13T03:35:14.185Z,100.00
2023-03-13T03:37:42.801Z,100.00
2023-03-13T03:40:12.914Z,100.00
2023-03-13T03:42:41.325Z,100.00
2023-03-13T03:45:10.695Z,100.00
2023-03-13T03:47:39.077Z,100.00
2023-03-13T03:50:11.300Z,100.00
2023-03-13T03:52:48.376Z,100.00
2023-03-13T03:55:17.434Z,100.00
2023-03-13T03:57:45.932Z,100.00
2023-03-13T04:00:21.212Z,100.00
2023-03-13T04:02:54.001Z,100.00
2023-03-13T04:05:24.311Z,100.00
2023-03-13T04:07:53.080Z,100.00
2023-03-13T04:10:21.451Z,100.00
2023-03-13T04:12:49.832Z,100.00
2023-03-13T04:15:18.457Z,100.00
2023-03-13T04:17:46.995Z,100.00
2023-03-13T04:20:16.489Z,100.00
2023-03-13T04:22:46.551Z,100.00
2023-03-13T04:25:16.718Z,100.00
2023-03-13T04:27:45.946Z,100.00
2023-03-13T04:30:17.585Z,100.00
2023-03-13T04:33:05.476Z,100.00
2023-03-13T04:35:52.808Z,100.00
2023-03-13T04:38:52.044Z,100.00
2023-03-13T04:41:43.647Z,100.00
2023-03-13T04:44:38.687Z,100.00
2023-03-13T04:47:20.570Z,100.00
2023-03-13T04:50:12.264Z,100.00
2023-03-13T04:52:52.578Z,100.00
2023-03-13T04:55:38.769Z,100.00
2023-03-13T04:58:25.847Z,100.00
2023-03-13T05:01:07.312Z,100.00
2023-03-13T05:03:54.081Z,100.00
2023-03-13T05:06:51.705Z,100.00
2023-03-13T05:09:32.102Z,100.00
2023-03-13T05:12:22.648Z,100.00
2023-03-13T05:15:07.653Z,100.00
2023-03-13T05:18:08.074Z,100.00
2023-03-13T05:20:49.172Z,100.00
2023-03-13T05:23:28.523Z,100.00
2023-03-13T05:26:23.015Z,100.00
2023-03-13T05:29:25.293Z,100.00
2023-03-13T05:32:01.410Z,100.00
2023-03-13T05:34:58.904Z,100.00
2023-03-13T05:37:46.391Z,100.00
2023-03-13T05:40:18.379Z,100.00
2023-03-13T05:43:02.823Z,100.00
2023-03-13T05:45:55.655Z,100.00
2023-03-13T05:48:38.076Z,100.00
2023-03-13T05:51:17.585Z,100.00
2023-03-13T05:54:14.974Z,100.00
2023-03-13T05:57:04.035Z,100.00
2023-03-13T06:00:06.189Z,100.00
2023-03-13T06:03:13.884Z,100.00
2023-03-13T06:05:45.810Z,100.00
2023-03-13T06:08:26.750Z,100.00
2023-03-13T06:10:55.263Z,100.00
2023-03-13T06:13:23.876Z,100.00
2023-03-13T06:15:56.073Z,100.00
2023-03-13T06:18:59.724Z,100.00
2023-03-13T06:21:28.051Z,100.00
2023-03-13T06:23:56.529Z,100.00
2023-03-13T06:26:26.179Z,100.00
2023-03-13T06:28:54.788Z,100.00
2023-03-13T06:31:23.386Z,100.00
2023-03-13T06:33:54.671Z,100.00
2023-03-13T06:36:25.934Z,100.00
2023-03-13T06:38:54.505Z,100.00
2023-03-13T06:41:22.957Z,100.00
2023-03-13T06:43:51.566Z,100.00
2023-03-13T06:46:22.278Z,100.00
2023-03-13T06:48:50.968Z,100.00
2023-03-13T06:51:21.188Z,100.00
2023-03-13T06:53:52.897Z,100.00
2023-03-13T06:56:22.096Z,100.00
2023-03-13T06:58:51.149Z,100.00
2023-03-13T07:01:19.782Z,100.00
2023-03-13T07:03:49.389Z,100.00
2023-03-13T07:06:18.561Z,100.00
2023-03-13T07:08:47.601Z,100.00
2023-03-13T07:11:17.513Z,100.00
2023-03-13T07:13:46.013Z,100.00
2023-03-13T07:16:15.409Z,100.00
2023-03-13T07:18:44.973Z,100.00
2023-03-13T07:21:13.426Z,100.00
2023-03-13T07:23:42.253Z,100.00
2023-03-13T07:26:13.573Z,100.00
2023-03-13T07:28:44.276Z,100.00
2023-03-13T07:31:15.658Z,100.00
2023-03-13T07:33:44.966Z,100.00
2023-03-13T07:36:15.553Z,100.00
2023-03-13T07:38:44.640Z,100.00
2023-03-13T07:41:14.441Z,100.00
2023-03-13T07:43:44.411Z,100.00
2023-03-13T07:46:14.468Z,100.00
2023-03-13T07:48:44.408Z,100.00
2023-03-13T07:51:16.571Z,100.00
2023-03-13T07:53:47.403Z,100.00
2023-03-13T07:56:17.044Z,100.00
2023-03-13T07:58:47.675Z,100.00
2023-03-13T08:01:18.283Z,100.00
2023-03-13T08:03:49.386Z,100.00
2023-03-13T08:06:20.058Z,100.00
2023-03-13T08:08:49.142Z,100.00
2023-03-13T08:11:19.594Z,100.00
2023-03-13T08:13:50.683Z,100.00
2023-03-13T08:16:20.675Z,100.00
2023-03-13T08:18:50.779Z,100.00
2023-03-13T08:21:21.138Z,100.00
2023-03-13T08:23:49.710Z,100.00
2023-03-13T08:26:20.762Z,100.00
2023-03-13T08:28:56.082Z,100.00
2023-03-13T08:31:26.026Z,100.00
2023-03-13T08:33:54.762Z,100.00
2023-03-13T08:36:25.232Z,100.00
2023-03-13T08:38:55.204Z,100.00
2023-03-13T08:41:25.725Z,100.00
2023-03-13T08:43:56.399Z,100.00
2023-03-13T08:46:25.811Z,100.00
2023-03-13T08:48:55.635Z,100.00
2023-03-13T08:51:25.849Z,100.00
2023-03-13T08:53:56.129Z,100.00
2023-03-13T08:56:25.805Z,100.00
2023-03-13T08:58:57.261Z,100.00
2023-03-13T09:01:31.256Z,100.00
2023-03-13T09:04:03.455Z,100.00
2023-03-13T09:06:32.601Z,100.00
2023-03-13T09:09:01.133Z,100.00
2023-03-13T09:11:29.878Z,100.00
2023-03-13T09:14:00.383Z,100.00
2023-03-13T09:16:30.840Z,100.00
2023-03-13T09:19:00.569Z,100.00
2023-03-13T09:21:30.767Z,100.00
2023-03-13T09:23:59.579Z,100.00
2023-03-13T09:26:29.208Z,100.00
2023-03-13T09:28:59.242Z,100.00
2023-03-13T09:31:37.414Z,100.00
2023-03-13T09:34:05.956Z,100.00
2023-03-13T09:36:34.481Z,100.00
2023-03-13T09:39:02.942Z,100.00
2023-03-13T09:41:37.961Z,100.00
2023-03-13T09:44:14.551Z,100.00
2023-03-13T09:46:49.482Z,100.00
2023-03-13T09:49:29.318Z,100.00
2023-03-13T09:52:05.547Z,100.00
2023-03-13T09:54:39.546Z,100.00
2023-03-13T09:57:16.622Z,100.00
2023-03-13T09:59:52.837Z,100.00
2023-03-13T10:02:29.931Z,100.00
2023-03-13T10:05:16.558Z,100.00
2023-03-13T10:07:45.410Z,100.00
2023-03-13T10:10:18.212Z,100.00
2023-03-13T10:12:48.706Z,100.00
2023-03-13T10:15:31.969Z,100.00
2023-03-13T10:18:05.526Z,100.00
2023-03-13T10:20:36.725Z,100.00
2023-03-13T10:23:15.694Z,100.00
2023-03-13T10:25:44.143Z,100.00
2023-03-13T10:28:14.496Z,100.00
2023-03-13T10:30:49.521Z,100.00
2023-03-13T10:33:21.968Z,100.00
2023-03-13T10:36:06.932Z,100.00
2023-03-13T10:38:46.497Z,100.00
2023-03-13T10:41:38.606Z,100.00
2023-03-13T10:44:16.314Z,100.00
2023-03-13T10:46:48.988Z,100.00
2023-03-13T10:49:19.924Z,100.00
2023-03-13T10:51:50.356Z,100.00
2023-03-13T10:54:25.836Z,100.00
2023-03-13T10:57:10.515Z,100.00
2023-03-13T10:59:43.294Z,100.00
2023-03-13T11:02:24.033Z,100.00
2023-03-13T11:04:53.949Z,100.00
2023-03-13T11:07:28.079Z,100.00
2023-03-13T11:10:00.586Z,100.00
2023-03-13T11:12:29.505Z,100.00
2023-03-13T11:14:59.298Z,100.00
2023-03-13T11:17:38.746Z,100.00
2023-03-13T11:20:16.814Z,100.00
2023-03-13T11:22:55.048Z,100.00
2023-03-13T11:25:36.734Z,100.00
2023-03-13T11:28:31.334Z,100.00
2023-03-13T11:31:10.987Z,100.00
2023-03-13T11:33:53.346Z,100.00
2023-03-13T11:36:27.694Z,100.00
2023-03-13T11:39:04.453Z,100.00
2023-03-13T11:41:44.537Z,100.00
2023-03-13T11:44:25.248Z,100.00
2023-03-13T11:47:14.274Z,100.00
2023-03-13T11:50:02.680Z,100.00
2023-03-13T11:52:49.528Z,100.00
2023-03-13T11:55:26.706Z,100.00
2023-03-13T11:58:06.949Z,100.00
2023-03-13T12:00:40.232Z,100.00
2023-03-13T12:03:17.819Z,100.00
2023-03-13T12:05:52.770Z,100.00
2023-03-13T12:08:26.703Z,100.00
2023-03-13T12:11:06.540Z,100.00
2023-03-13T12:13:39.521Z,100.00
2023-03-13T12:16:13.700Z,100.00
2023-03-13T12:18:45.221Z,100.00
2023-03-13T12:21:21.228Z,100.00
2023-03-13T12:23:59.011Z,100.00
2023-03-13T12:26:35.696Z,100.00
2023-03-13T12:29:13.616Z,100.00
2023-03-13T12:31:46.616Z,100.00
2023-03-13T12:34:21.937Z,100.00
2023-03-13T12:36:56.862Z,100.00
2023-03-13T12:39:34.589Z,100.00
2023-03-13T12:42:18.426Z,100.00
2023-03-13T12:44:47.432Z,100.00
2023-03-13T12:47:23.597Z,100.00
2023-03-13T12:50:17.940Z,100.00
2023-03-13T12:53:04.588Z,100.00
2023-03-13T12:55:56.424Z,100.00
2023-03-13T12:58:31.515Z,100.00
2023-03-13T13:01:05.587Z,100.00
2023-03-13T13:03:37.940Z,100.00
2023-03-13T13:06:11.724Z,100.00
2023-03-13T13:08:44.088Z,100.00
2023-03-13T13:11:50.199Z,98.07
2023-03-13T13:14:52.006Z,90.73
2023-03-13T13:17:25.946Z,94.14
2023-03-13T13:19:55.165Z,93.94
2023-03-13T13:22:52.752Z,85.63
2023-03-13T13:25:33.649Z,88.68
2023-03-13T13:28:34.029Z,89.46
2023-03-13T13:31:03.357Z,89.56
2023-03-13T13:33:41.256Z,89.84
2023-03-13T13:36:42.128Z,90.67
2023-03-13T13:39:36.868Z,83.71
2023-03-13T13:42:42.040Z,85.54
2023-03-13T13:45:27.848Z,88.82
2023-03-13T13:48:22.745Z,93.31
2023-03-13T13:51:36.599Z,97.98
2023-03-13T13:54:18.029Z,99.76
2023-03-13T13:56:49.797Z,90.71
2023-03-13T13:59:34.255Z,83.91
2023-03-13T14:02:31.800Z,80.69
2023-03-13T14:05:06.662Z,84.48
2023-03-13T14:07:49.082Z,86.94
2023-03-13T14:10:27.274Z,88.87
2023-03-13T14:12:57.990Z,88.60
2023-03-13T14:15:28.118Z,88.51
2023-03-13T14:18:01.030Z,91.96
2023-03-13T14:20:33.326Z,98.60
2023-03-13T14:23:03.898Z,98.86
2023-03-13T14:25:44.808Z,100.00
2023-03-13T14:28:25.293Z,96.77
2023-03-13T14:30:57.937Z,97.99
2023-03-13T14:33:28.726Z,100.00
2023-03-13T14:35:57.946Z,100.00
2023-03-13T14:38:30.064Z,99.71
2023-03-13T14:40:58.715Z,96.22
2023-03-13T14:43:34.832Z,84.82
2023-03-13T14:46:15.840Z,81.36
2023-03-13T14:48:46.073Z,87.21
2023-03-13T14:51:22.489Z,82.42
2023-03-13T14:53:58.933Z,84.92
2023-03-13T14:56:36.837Z,84.98
2023-03-13T14:59:10.333Z,82.81
2023-03-13T15:01:38.682Z,82.81
2023-03-13T15:04:08.646Z,82.94
2023-03-13T15:06:37.201Z,83.85
2023-03-13T15:09:21.176Z,80.76
2023-03-13T15:11:58.935Z,79.77
2023-03-13T15:14:39.542Z,81.61
2023-03-13T15:17:17.705Z,75.31
2023-03-13T15:19:52.404Z,73.44
2023-03-13T15:22:28.178Z,73.46
2023-03-13T15:25:06.085Z,73.65
2023-03-13T15:27:35.916Z,71.95
2023-03-13T15:30:05.329Z,70.29
2023-03-13T15:32:36.051Z,68.79
2023-03-13T15:35:22.767Z,69.21
2023-03-13T15:37:51.589Z,69.51
2023-03-13T15:40:20.821Z,68.65
2023-03-13T15:42:49.341Z,68.43
2023-03-13T15:45:18.095Z,71.07
2023-03-13T15:47:48.975Z,70.58
2023-03-13T15:50:22.527Z,69.28
2023-03-13T15:52:51.212Z,71.13
2023-03-13T15:55:19.773Z,71.12
2023-03-13T15:57:50.663Z,70.35
2023-03-13T16:00:22.915Z,69.15
2023-03-13T16:02:51.872Z,69.82
2023-03-13T16:05:21.713Z,70.75
2023-03-13T16:07:50.231Z,70.68
2023-03-13T16:10:23.852Z,70.06
2023-03-13T16:12:53.872Z,71.93
2023-03-13T16:15:22.608Z,73.66
2023-03-13T16:17:51.289Z,78.38
2023-03-13T16:20:23.821Z,77.59
2023-03-13T16:22:53.761Z,79.25
2023-03-13T16:25:23.238Z,81.42
2023-03-13T16:27:53.579Z,80.75
2023-03-13T16:30:25.033Z,81.94
2023-03-13T16:32:53.612Z,83.86
2023-03-13T16:35:24.229Z,82.39
2023-03-13T16:37:52.739Z,82.66
2023-03-13T16:40:23.292Z,83.46
2023-03-13T16:42:51.930Z,84.41
2023-03-13T16:45:20.728Z,86.38
2023-03-13T16:47:50.702Z,87.13
2023-03-13T16:50:25.293Z,88.80
2023-03-13T16:52:54.826Z,94.40
2023-03-13T16:55:28.333Z,95.18
2023-03-13T16:57:57.276Z,96.73
2023-03-13T17:00:27.495Z,95.60
2023-03-13T17:02:57.528Z,98.87
2023-03-13T17:05:28.457Z,100.00
2023-03-13T17:07:57.018Z,100.00
2023-03-13T17:10:28.501Z,100.00
2023-03-13T17:12:57.545Z,100.00
2023-03-13T17:15:27.881Z,100.00
2023-03-13T17:17:56.512Z,100.00
2023-03-13T17:20:28.310Z,100.00
2023-03-13T17:22:57.373Z,100.00
2023-03-13T17:25:26.248Z,100.00
2023-03-13T17:27:55.165Z,100.00
2023-03-13T17:30:26.071Z,100.00
2023-03-13T17:32:54.704Z,100.00
2023-03-13T17:35:24.273Z,100.00
2023-03-13T17:37:54.351Z,100.00
2023-03-13T17:40:24.695Z,100.00
2023-03-13T17:42:53.107Z,100.00
2023-03-13T17:45:22.879Z,100.00
2023-03-13T17:47:51.375Z,100.00
2023-03-13T17:50:22.470Z,100.00
2023-03-13T17:52:51.538Z,100.00
2023-03-13T17:55:21.696Z,100.00
2023-03-13T17:57:50.202Z,100.00
2023-03-13T18:00:24.473Z,100.00
2023-03-13T18:02:53.073Z,100.00
2023-03-13T18:05:21.898Z,100.00
2023-03-13T18:07:50.877Z,100.00
2023-03-13T18:10:23.391Z,100.00
2023-03-13T18:12:52.937Z,100.00
2023-03-13T18:15:26.972Z,100.00
2023-03-13T18:17:55.442Z,100.00
2023-03-13T18:20:26.138Z,100.00
2023-03-13T18:22:59.527Z,100.00
2023-03-13T18:25:30.531Z,100.00
2023-03-13T18:27:59.327Z,100.00
2023-03-13T18:30:28.279Z,100.00
2023-03-13T18:32:56.926Z,100.00
2023-03-13T18:35:25.628Z,100.00
2023-03-13T18:37:54.143Z,100.00
2023-03-13T18:40:25.281Z,100.00
2023-03-13T18:42:55.603Z,100.00
2023-03-13T18:45:26.523Z,100.00
2023-03-13T18:47:55.136Z,100.00
2023-03-13T18:50:26.675Z,100.00
2023-03-13T18:52:55.576Z,100.00
2023-03-13T18:55:24.964Z,100.00
2023-03-13T18:57:55.833Z,100.00
2023-03-13T19:00:27.624Z,100.00
2023-03-13T19:02:56.296Z,100.00
2023-03-13T19:05:25.451Z,100.00
2023-03-13T19:07:53.920Z,100.00
2023-03-13T19:10:25.314Z,100.00
2023-03-13T19:12:56.185Z,100.00
2023-03-13T19:15:28.523Z,100.00
2023-03-13T19:17:57.571Z,100.00
2023-03-13T19:20:28.598Z,100.00
2023-03-13T19:23:00.977Z,100.00
2023-03-13T19:25:29.835Z,100.00
2023-03-13T19:27:59.692Z,100.00
2023-03-13T19:30:29.700Z,100.00
2023-03-13T19:32:58.512Z,100.00
2023-03-13T19:35:30.441Z,100.00
2023-03-13T19:37:59.013Z,100.00
2023-03-13T19:40:29.667Z,100.00
2023-03-13T19:42:59.452Z,100.00
2023-03-13T19:45:27.877Z,100.00
2023-03-13T19:47:56.451Z,100.00
2023-03-13T19:50:27.785Z,100.00
2023-03-13T19:52:56.504Z,100.00
2023-03-13T19:55:24.943Z,100.00
2023-03-13T19:57:53.413Z,100.00
2023-03-13T20:00:25.416Z,100.00
2023-03-13T20:02:55.361Z,100.00
2023-03-13T20:05:24.523Z,100.00
2023-03-13T20:07:55.470Z,100.00
2023-03-13T20:10:24.504Z,100.00
2023-03-13T20:12:53.757Z,100.00
2023-03-13T20:15:23.675Z,100.00
2023-03-13T20:17:52.308Z,100.00
2023-03-13T20:20:21.054Z,100.00
2023-03-13T20:22:49.617Z,100.00
2023-03-13T20:25:18.176Z,100.00
2023-03-13T20:27:46.600Z,100.00
2023-03-13T20:30:15.149Z,100.00
2023-03-13T20:32:57.052Z,100.00
2023-03-13T20:35:29.296Z,100.00
2023-03-13T20:37:59.862Z,100.00
2023-03-13T20:40:28.668Z,100.00
2023-03-13T20:42:58.364Z,100.00
2023-03-13T20:45:28.475Z,100.00
2023-03-13T20:47:58.885Z,100.00
2023-03-13T20:50:27.486Z,100.00
2023-03-13T20:52:56.561Z,100.00
2023-03-13T20:55:24.995Z,100.00
2023-03-13T20:57:55.828Z,100.00
2023-03-13T21:00:24.508Z,100.00
2023-03-13T21:02:54.384Z,100.00
2023-03-13T21:05:24.360Z,100.00
2023-03-13T21:07:52.888Z,100.00
2023-03-13T21:10:21.332Z,100.00
2023-03-13T21:12:50.046Z,100.00
2023-03-13T21:15:18.588Z,100.00
2023-03-13T21:17:46.978Z,100.00
2023-03-13T21:20:15.907Z,100.00
2023-03-13T21:22:45.765Z,100.00
2023-03-13T21:25:14.513Z,100.00
2023-03-13T21:27:44.853Z,100.00
2023-03-13T21:30:15.498Z,100.00
2023-03-13T21:32:44.106Z,100.00
2023-03-13T21:35:13.394Z,100.00
2023-03-13T21:37:42.921Z,100.00
2023-03-13T21:40:14.123Z,100.00
2023-03-13T21:42:43.557Z,100.00
2023-03-13T21:45:13.014Z,100.00
2023-03-13T21:47:41.671Z,100.00
2023-03-13T21:50:11.330Z,100.00
2023-03-13T21:52:42.351Z,100.00
2023-03-13T21:55:14.105Z,100.00
2023-03-13T21:57:42.588Z,100.00
2023-03-13T22:00:14.310Z,100.00
2023-03-13T22:02:43.525Z,100.00
2023-03-13T22:05:12.621Z,100.00
2023-03-13T22:07:41.082Z,100.00
2023-03-13T22:10:10.635Z,100.00
2023-03-13T22:12:40.505Z,100.00
2023-03-13T22:15:11.130Z,100.00
2023-03-13T22:17:39.742Z,100.00
2023-03-13T22:20:10.190Z,100.00
2023-03-13T22:22:38.577Z,100.00
2023-03-13T22:25:07.645Z,100.00
2023-03-13T22:27:36.529Z,100.00
2023-03-13T22:30:07.885Z,100.00
2023-03-13T22:32:36.367Z,100.00
2023-03-13T22:35:05.471Z,100.00
2023-03-13T22:37:33.911Z,100.00
2023-03-13T22:40:02.559Z,100.00
2023-03-13T22:42:30.912Z,100.00
2023-03-13T22:44:59.250Z,100.00
2023-03-13T22:47:29.106Z,100.00
2023-03-13T22:49:57.490Z,100.00
2023-03-13T22:52:30.773Z,100.00
2023-03-13T22:54:59.255Z,100.00
2023-03-13T22:57:29.273Z,100.00
2023-03-13T22:59:59.231Z,100.00
2023-03-13T23:02:32.046Z,100.00
2023-03-13T23:05:01.382Z,100.00
2023-03-13T23:07:32.461Z,100.00
2023-03-13T23:10:00.895Z,100.00
2023-03-13T23:12:30.989Z,100.00
2023-03-13T23:15:02.114Z,100.00
2023-03-13T23:17:34.244Z,100.00
2023-03-13T23:20:05.185Z,100.00
2023-03-13T23:22:34.884Z,100.00
2023-03-13T23:25:03.298Z,100.00
2023-03-13T23:27:32.190Z,100.00
2023-03-13T23:30:04.272Z,100.00
2023-03-13T23:32:37.845Z,100.00
2023-03-13T23:35:07.701Z,100.00
2023-03-13T23:37:36.735Z,100.00
2023-03-13T23:40:10.416Z,100.00
2023-03-13T23:42:38.894Z,100.00
2023-03-13T23:45:09.257Z,100.00
2023-03-13T23:47:39.121Z,100.00
2023-03-13T23:50:07.775Z,100.00
2023-03-13T23:52:36.696Z,100.00
2023-03-13T23:55:06.544Z,100.00
2023-03-13T23:57:37.674Z,100.00
